Time;durP1;ratioP1;P1;durP2;ratioP2;P2;SDS_P1;SDS_P2;PMS_P1;PMS_P2;Temp;Humidity;BMP_temperature;BMP_pressure;BME280_temperature;BME280_humidity;BME280_pressure;Samples;Min_cycle;Max_cycle;Signal;HPM_P1;HPM_P2
2022/06/09 00:00:01;;;;;;;;;4.00;1.25;;;;;16.51;66.12;100646.41;5056438;28;45881;-78
2022/06/09 00:02:30;;;;;;;;;2.75;1.75;;;;;16.36;66.39;100632.81;5056640;28;45884;-79
2022/06/09 00:08:19;;;;;;;;;1.50;1.50;;;;;16.33;67.80;100654.28;5055888;28;45668;-78
2022/06/09 00:10:52;;;;;;;;;1.25;1.25;;;;;16.19;67.10;100641.53;5056197;28;45673;-78
2022/06/09 00:13:17;;;;;;;;;1.50;1.00;;;;;16.18;67.99;100661.84;5056472;28;45641;-76
2022/06/09 00:15:43;;;;;;;;;1.25;1.00;;;;;16.12;67.12;100667.69;5037665;28;48735;-78
2022/06/09 00:18:08;;;;;;;;;2.00;1.75;;;;;16.04;67.12;100661.44;5055962;28;46458;-78
2022/06/09 00:20:34;;;;;;;;;2.75;2.00;;;;;16.02;68.70;100666.06;5056080;28;45594;-76
2022/06/09 00:22:59;;;;;;;;;2.00;1.75;;;;;15.96;68.00;100667.47;5056176;28;45781;-79
2022/06/09 00:25:25;;;;;;;;;5.00;2.00;;;;;15.88;67.90;100660.22;5056128;28;45692;-78
2022/06/09 00:27:50;;;;;;;;;1.50;1.00;;;;;15.90;68.00;100676.78;5055864;28;46643;-78
2022/06/09 00:30:17;;;;;;;;;2.25;1.00;;;;;15.87;67.32;100663.03;5055861;28;45555;-77
2022/06/09 00:32:43;;;;;;;;;2.00;1.75;;;;;15.91;68.43;100688.19;5056010;28;45564;-78
2022/06/09 00:38:30;;;;;;;;;2.00;1.50;;;;;15.78;69.42;100688.47;5055388;28;45762;-77
2022/06/09 00:41:00;;;;;;;;;2.00;1.75;;;;;15.73;68.63;100690.69;5055845;28;45717;-79
2022/06/09 00:43:32;;;;;;;;;3.00;1.50;;;;;15.70;68.42;100692.81;5038704;28;45618;-78
2022/06/09 00:45:57;;;;;;;;;2.00;1.00;;;;;15.71;68.29;100691.84;5037452;28;47455;-78
2022/06/09 00:48:31;;;;;;;;;4.00;2.00;;;;;15.67;67.84;100685.13;5055673;28;46359;-78
2022/06/09 00:51:15;;;;;;;;;3.00;2.75;;;;;15.64;68.10;100677.50;5037222;28;45817;-78
2022/06/09 00:53:42;;;;;;;;;5.00;2.00;;;;;15.67;68.07;100687.78;5055910;28;45754;-78
2022/06/09 00:56:12;;;;;;;;;3.75;2.00;;;;;15.71;68.12;100683.91;5055610;28;46721;-78
2022/06/09 00:58:42;;;;;;;;;1.75;1.00;;;;;15.71;68.32;100694.47;5055378;28;46009;-77
2022/06/09 01:01:13;;;;;;;;;2.00;2.00;;;;;15.60;68.13;100682.22;5055362;28;45762;-77
2022/06/09 01:04:00;;;;;;;;;3.00;2.00;;;;;15.64;68.53;100691.56;5055094;28;45656;-77
2022/06/09 01:06:31;;;;;;;;;2.50;1.50;;;;;15.59;68.40;100685.00;5054662;28;45592;-78
2022/06/09 01:08:58;;;;;;;;;2.75;2.00;;;;;15.60;68.76;100692.78;5055276;28;46363;-78
2022/06/09 01:11:24;;;;;;;;;1.75;1.00;;;;;15.52;68.29;100692.66;5055021;28;45693;-78
2022/06/09 01:13:49;;;;;;;;;3.00;2.00;;;;;15.58;68.68;100701.84;5055554;28;45753;-77
2022/06/09 01:16:22;;;;;;;;;1.00;1.00;;;;;15.56;68.30;100695.84;5055432;28;46386;-77
2022/06/09 01:18:48;;;;;;;;;3.00;1.75;;;;;15.58;68.30;100699.19;5055160;28;45733;-78
2022/06/09 01:21:48;;;;;;;;;2.00;1.75;;;;;15.56;68.54;100709.88;5055048;28;45735;-76
2022/06/09 01:24:22;;;;;;;;;1.00;1.00;;;;;15.50;68.66;100710.41;4976528;28;45884;-78
2022/06/09 01:27:15;;;;;;;;;3.00;2.00;;;;;15.43;68.92;100709.31;4992801;28;46685;-78
2022/06/09 01:29:42;;;;;;;;;2.00;1.00;;;;;15.36;68.92;100711.66;4992757;28;46069;-77
2022/06/09 01:32:28;;;;;;;;;3.75;1.50;;;;;15.33;69.59;100716.38;4992973;28;45823;-78
2022/06/09 01:35:05;;;;;;;;;2.00;1.50;;;;;15.26;69.51;100729.28;4992954;28;45561;-78
2022/06/09 01:37:37;;;;;;;;;2.00;1.75;;;;;15.19;70.18;100724.66;4992608;28;45771;-79
2022/06/09 01:40:05;;;;;;;;;3.50;1.00;;;;;15.19;70.70;100719.38;4992534;28;46042;-77
2022/06/09 01:42:32;;;;;;;;;4.75;2.50;;;;;15.14;70.07;100719.81;4992622;28;45683;-78
2022/06/09 01:45:20;;;;;;;;;1.25;0.75;;;;;15.07;70.86;100723.94;4992517;28;45989;-78
2022/06/09 01:47:52;;;;;;;;;3.00;1.25;;;;;15.05;70.67;100724.09;4984323;28;46485;-78
2022/06/09 01:50:26;;;;;;;;;2.00;1.00;;;;;14.99;71.61;100714.09;4992396;28;46121;-79
2022/06/09 01:52:54;;;;;;;;;2.25;1.75;;;;;14.91;71.27;100702.50;4992614;28;45873;-78
2022/06/09 01:55:22;;;;;;;;;2.00;2.00;;;;;14.97;70.83;100731.84;4992592;28;46025;-77
2022/06/09 01:57:54;;;;;;;;;3.75;1.00;;;;;14.97;71.78;100723.91;4992296;28;46525;-78
2022/06/09 02:00:20;;;;;;;;;3.00;2.00;;;;;14.85;71.11;100717.06;5007653;28;46762;-78
2022/06/09 02:03:00;;;;;;;;;4.00;1.75;;;;;14.81;71.41;100712.19;5046387;28;45698;-79
2022/06/09 02:05:29;;;;;;;;;2.00;1.00;;;;;14.82;71.26;100719.16;5054795;28;45537;-78
2022/06/09 02:07:59;;;;;;;;;1.75;1.75;;;;;14.87;71.59;100744.16;5054492;28;45731;-78
2022/06/09 02:10:30;;;;;;;;;3.75;2.00;;;;;14.85;71.51;100755.81;5053982;28;47228;-76
2022/06/09 02:13:03;;;;;;;;;1.25;1.00;;;;;14.79;71.80;100728.16;5036209;28;45820;-77
2022/06/09 02:15:40;;;;;;;;;2.00;2.00;;;;;14.77;71.21;100740.66;5053679;28;45599;-77
2022/06/09 02:18:11;;;;;;;;;4.00;3.00;;;;;14.78;72.00;100746.78;5054028;28;45672;-78
2022/06/09 02:20:42;;;;;;;;;4.00;2.00;;;;;14.76;71.98;100738.97;5054324;28;46324;-77
2022/06/09 02:23:10;;;;;;;;;2.50;1.00;;;;;14.70;72.13;100744.78;5054087;28;45770;-78
2022/06/09 02:25:36;;;;;;;;;2.50;2.00;;;;;14.66;71.85;100746.03;5035949;28;45467;-78
2022/06/09 02:28:03;;;;;;;;;2.25;2.00;;;;;14.64;72.41;100732.97;5054012;28;46437;-78
2022/06/09 02:30:28;;;;;;;;;2.00;1.25;;;;;14.63;72.22;100741.81;5053892;28;46114;-78
2022/06/09 02:32:54;;;;;;;;;5.50;2.00;;;;;14.60;71.78;100733.34;5054097;28;45650;-78
2022/06/09 02:35:19;;;;;;;;;2.00;1.50;;;;;14.65;72.59;100741.72;5054226;28;45707;-78
2022/06/09 02:37:45;;;;;;;;;3.00;2.25;;;;;14.65;72.39;100739.06;5053921;28;45624;-78
2022/06/09 02:40:11;;;;;;;;;3.75;2.25;;;;;14.57;72.50;100734.47;5054029;28;46213;-80
2022/06/09 02:42:36;;;;;;;;;3.25;3.00;;;;;14.60;71.80;100734.19;5053951;28;45775;-79
2022/06/09 02:45:03;;;;;;;;;2.00;2.00;;;;;14.60;71.82;100736.84;5054063;28;45635;-79
2022/06/09 02:47:28;;;;;;;;;4.00;3.00;;;;;14.64;71.53;100747.94;5036093;28;46700;-79
2022/06/09 02:49:54;;;;;;;;;2.00;1.75;;;;;14.67;72.01;100753.81;5053803;28;45601;-77
2022/06/09 02:52:19;;;;;;;;;3.50;2.00;;;;;14.66;72.41;100753.94;5053871;28;45618;-79
2022/06/09 02:54:44;;;;;;;;;3.00;2.00;;;;;14.57;72.14;100745.03;5054061;28;45613;-79
2022/06/09 02:57:10;;;;;;;;;4.25;2.00;;;;;14.56;73.25;100743.34;5053630;28;46497;-79
2022/06/09 02:59:35;;;;;;;;;2.50;1.50;;;;;14.61;72.22;100761.41;5053605;28;45623;-79
2022/06/09 03:02:01;;;;;;;;;2.25;2.00;;;;;14.51;72.21;100734.16;5053672;28;45738;-80
2022/06/09 03:04:27;;;;;;;;;3.00;2.50;;;;;14.55;72.04;100740.81;5053916;28;45568;-79
2022/06/09 03:06:52;;;;;;;;;3.00;2.00;;;;;14.61;72.25;100753.50;5053440;28;45695;-80
2022/06/09 03:09:18;;;;;;;;;3.25;2.00;;;;;14.57;72.95;100749.44;5053757;28;46618;-79
2022/06/09 03:11:43;;;;;;;;;1.00;0.00;;;;;14.57;73.20;100757.38;5035112;28;45681;-78
2022/06/09 03:14:10;;;;;;;;;5.00;2.00;;;;;14.53;72.75;100750.66;5053869;28;45624;-78
2022/06/09 03:16:36;;;;;;;;;2.00;2.00;;;;;14.56;73.30;100759.16;5044940;28;45646;-78
2022/06/09 03:19:02;;;;;;;;;2.00;1.00;;;;;14.54;73.76;100761.09;5033342;28;46395;-78
2022/06/09 03:21:27;;;;;;;;;3.00;2.00;;;;;14.47;72.94;100738.00;5033192;28;45842;-78
2022/06/09 03:23:53;;;;;;;;;4.00;2.50;;;;;14.51;72.66;100765.78;5033488;28;45803;-78
2022/06/09 03:26:18;;;;;;;;;3.50;2.75;;;;;14.49;72.38;100749.25;5032958;28;46466;-78
2022/06/09 03:28:43;;;;;;;;;2.50;2.00;;;;;14.50;72.96;100746.50;5033242;28;46228;-78
2022/06/09 03:31:09;;;;;;;;;3.00;2.00;;;;;14.51;72.59;100758.72;5014663;28;45603;-77
2022/06/09 03:33:35;;;;;;;;;4.50;3.00;;;;;14.44;72.39;100740.91;5033409;28;45550;-78
2022/06/09 03:39:22;;;;;;;;;1.75;1.00;;;;;14.52;72.80;100763.00;5032653;28;45767;-79
2022/06/09 03:41:48;;;;;;;;;1.75;1.50;;;;;14.54;73.81;100786.59;5033132;28;46031;-80
2022/06/09 03:44:13;;;;;;;;;2.00;1.00;;;;;14.43;73.21;100769.06;5033357;28;45577;-80
2022/06/09 03:46:39;;;;;;;;;3.00;2.00;;;;;14.40;72.66;100773.78;5032837;28;45738;-78
2022/06/09 03:49:04;;;;;;;;;2.25;1.75;;;;;14.46;73.15;100789.06;5033069;28;46322;-79
2022/06/09 03:54:51;;;;;;;;;2.75;1.00;;;;;14.42;72.77;100782.38;5032975;28;45733;-78
2022/06/09 03:57:16;;;;;;;;;2.00;2.00;;;;;14.44;73.41;100796.25;5032904;28;46637;-78
2022/06/09 03:59:42;;;;;;;;;2.00;2.00;;;;;14.38;73.62;100794.97;5033044;28;45701;-78
2022/06/09 04:02:08;;;;;;;;;2.75;2.00;;;;;14.37;73.44;100811.75;5033140;28;45656;-80
2022/06/09 04:04:33;;;;;;;;;4.00;2.50;;;;;14.36;73.50;100798.69;5033536;28;45668;-78
2022/06/09 04:06:59;;;;;;;;;5.50;1.75;;;;;14.32;73.66;100803.38;5032696;28;46794;-77
2022/06/09 04:09:24;;;;;;;;;3.75;2.50;;;;;14.33;73.50;100812.94;5032520;28;45663;-79
2022/06/09 04:11:50;;;;;;;;;4.00;2.00;;;;;14.28;73.87;100802.78;5032727;28;45663;-78
2022/06/09 04:14:16;;;;;;;;;3.75;3.00;;;;;14.31;74.45;100814.88;5033224;28;45739;-77
2022/06/09 04:16:44;;;;;;;;;4.75;3.50;;;;;14.27;74.01;100811.66;5041300;28;46579;-78
2022/06/09 04:19:13;;;;;;;;;4.50;2.00;;;;;14.30;73.53;100823.75;5051468;28;46844;-78
2022/06/09 04:25:01;;;;;;;;;3.50;2.25;;;;;14.32;73.44;100824.44;5052588;28;45718;-78
2022/06/09 04:27:26;;;;;;;;;4.25;2.00;;;;;14.31;73.75;100830.69;5052660;28;45961;-77
2022/06/09 04:29:52;;;;;;;;;3.00;3.00;;;;;14.29;73.56;100827.34;5052390;28;46294;-78
2022/06/09 04:32:17;;;;;;;;;4.25;2.00;;;;;14.30;73.15;100831.66;5034264;28;45619;-78
2022/06/09 04:34:43;;;;;;;;;5.50;3.00;;;;;14.32;73.53;100844.69;5052844;28;46004;-78
2022/06/09 04:37:09;;;;;;;;;3.00;2.25;;;;;14.33;73.32;100835.84;5052544;28;45849;-78
2022/06/09 04:39:34;;;;;;;;;6.50;3.50;;;;;14.29;73.30;100840.53;5055685;28;46000;-77
2022/06/09 04:42:00;;;;;;;;;2.00;2.00;;;;;14.29;73.72;100853.72;5055982;28;45488;-77
2022/06/09 04:44:25;;;;;;;;;3.75;2.00;;;;;14.20;73.36;100825.47;5056011;28;45796;-77
2022/06/09 04:46:50;;;;;;;;;5.25;2.00;;;;;14.23;73.44;100836.59;5055584;28;46467;-78
2022/06/09 04:49:16;;;;;;;;;7.00;3.00;;;;;14.37;73.02;100858.38;5055533;28;46183;-78
2022/06/09 04:55:05;;;;;;;;;2.25;2.25;;;;;14.39;72.93;100872.25;5055823;28;45564;-77
2022/06/09 04:57:30;;;;;;;;;4.50;3.75;;;;;14.37;73.56;100877.66;5055628;28;47002;-79
2022/06/09 04:59:55;;;;;;;;;4.00;2.00;;;;;14.36;73.48;100877.78;5055817;28;45669;-77
2022/06/09 05:02:21;;;;;;;;;2.00;2.00;;;;;14.36;73.90;100888.31;5055871;28;46137;-77
2022/06/09 05:04:47;;;;;;;;;3.50;2.00;;;;;14.29;73.74;100885.34;5056084;28;45700;-79
2022/06/09 05:07:12;;;;;;;;;3.75;3.25;;;;;14.34;73.33;100882.31;5055950;28;46837;-77
2022/06/09 05:09:38;;;;;;;;;4.25;2.25;;;;;14.36;73.25;100883.84;5055628;28;45801;-78
2022/06/09 05:12:04;;;;;;;;;4.50;3.25;;;;;14.35;73.28;100871.66;5055575;28;45739;-78
2022/06/09 05:14:30;;;;;;;;;5.50;3.50;;;;;14.32;72.97;100861.34;5055818;28;45685;-78
2022/06/09 05:16:55;;;;;;;;;4.25;2.50;;;;;14.43;74.03;100889.50;5054917;28;45618;-78
2022/06/09 05:19:20;;;;;;;;;4.25;4.00;;;;;14.46;73.67;100890.09;5055554;28;46165;-78
2022/06/09 05:25:09;;;;;;;;;4.50;2.00;;;;;14.49;73.09;100900.38;5055414;28;45456;-79
2022/06/09 05:27:35;;;;;;;;;5.00;4.25;;;;;14.52;73.22;100902.75;5055245;28;46714;-79
2022/06/09 05:30:01;;;;;;;;;4.00;3.00;;;;;14.56;73.03;100909.47;5055035;28;45930;-78
2022/06/09 05:32:26;;;;;;;;;4.75;3.50;;;;;14.54;72.95;100903.47;5055254;28;45730;-78
2022/06/09 05:34:52;;;;;;;;;4.50;3.00;;;;;14.64;72.68;100912.28;5055309;28;45742;-78
2022/06/09 05:46:09;;;;;;;;;3.00;2.75;;;;;14.77;72.35;100917.38;5055011;28;45665;-79
2022/06/09 05:48:35;;;;;;;;;3.00;2.00;;;;;14.83;72.30;100921.31;5054325;28;45787;-79
2022/06/09 05:51:01;;;;;;;;;5.50;3.75;;;;;14.88;72.46;100927.03;5053788;28;46032;-78
2022/06/09 05:53:27;;;;;;;;;3.25;2.25;;;;;14.87;72.39;100923.56;5054743;28;45736;-78
2022/06/09 05:55:52;;;;;;;;;4.25;3.00;;;;;14.95;71.82;100929.00;5055003;28;45812;-78
2022/06/09 05:58:18;;;;;;;;;4.25;3.75;;;;;15.01;72.09;100938.22;5054521;28;45652;-79
2022/06/09 06:00:45;;;;;;;;;6.25;3.25;;;;;15.03;72.07;100942.41;5054669;28;45813;-80
2022/06/09 06:03:12;;;;;;;;;1.50;1.00;;;;;15.04;71.84;100941.44;5054736;28;45599;-77
2022/06/09 06:08:23;;;;;;;;;2.25;2.00;;;;;15.24;71.23;100950.31;5054135;28;46152;-77
2022/06/09 06:10:48;;;;;;;;;4.25;2.00;;;;;15.30;71.74;100948.94;5054276;28;45684;-78
2022/06/09 06:13:14;;;;;;;;;5.00;3.00;;;;;15.30;71.54;100941.88;5054605;28;45708;-78
2022/06/09 06:15:39;;;;;;;;;3.00;3.00;;;;;15.34;71.04;100951.19;5054424;28;45866;-78
2022/06/09 06:18:05;;;;;;;;;3.00;2.00;;;;;15.33;70.89;100941.59;5054261;28;46524;-79
2022/06/09 06:20:30;;;;;;;;;3.75;3.00;;;;;15.46;70.83;100963.34;5054090;28;45699;-77
2022/06/09 06:22:56;;;;;;;;;4.25;2.75;;;;;15.48;71.78;100955.31;5054592;28;45782;-78
2022/06/09 06:25:23;;;;;;;;;7.75;5.00;;;;;15.50;71.22;100961.28;5054283;28;45594;-79
2022/06/09 06:27:49;;;;;;;;;4.25;3.00;;;;;15.50;70.90;100961.28;5053946;28;45636;-78
2022/06/09 06:30:14;;;;;;;;;3.00;3.00;;;;;15.46;71.17;100955.44;5054112;28;46333;-78
2022/06/09 06:32:40;;;;;;;;;3.00;2.00;;;;;15.54;71.45;100970.66;5054258;28;45720;-77
2022/06/09 06:35:06;;;;;;;;;4.00;2.25;;;;;15.53;70.57;100976.91;5054523;28;45654;-80
2022/06/09 06:40:54;;;;;;;;;4.50;3.00;;;;;15.63;70.50;100983.06;5053615;28;46226;-79
2022/06/09 06:43:21;;;;;;;;;4.00;3.00;;;;;15.65;70.06;100982.94;5053542;28;45801;-79
2022/06/09 06:45:46;;;;;;;;;4.00;2.75;;;;;15.67;70.76;101000.31;5054722;28;45500;-77
2022/06/09 06:48:12;;;;;;;;;5.00;4.00;;;;;15.71;70.17;100988.50;5054039;28;45777;-79
2022/06/09 06:50:37;;;;;;;;;5.00;4.00;;;;;15.66;69.76;100966.09;5054020;28;45698;-78
2022/06/09 06:53:02;;;;;;;;;4.50;3.75;;;;;15.78;69.32;100987.00;5054006;28;45568;-78
2022/06/09 06:55:29;;;;;;;;;6.00;4.25;;;;;15.83;69.69;100990.09;5054435;28;45669;-79
2022/06/09 06:57:55;;;;;;;;;5.00;3.00;;;;;15.90;69.72;100990.41;5053802;28;46592;-78
2022/06/09 07:00:23;;;;;;;;;4.25;4.00;;;;;15.94;69.41;100997.91;5053102;28;46394;-78
2022/06/09 07:02:49;;;;;;;;;6.75;4.00;;;;;15.88;68.99;100994.97;5053402;28;45810;-80
2022/06/09 07:05:16;;;;;;;;;3.50;3.00;;;;;15.97;68.95;101002.13;5054069;28;45558;-79
2022/06/09 07:11:06;;;;;;;;;4.00;3.50;;;;;16.04;69.06;101012.97;5053157;28;45771;-79
2022/06/09 07:13:32;;;;;;;;;4.75;4.00;;;;;16.04;68.15;101024.38;5053701;28;45681;-78
2022/06/09 07:15:57;;;;;;;;;3.50;2.75;;;;;16.07;68.09;101016.19;5053544;28;45839;-79
2022/06/09 07:18:23;;;;;;;;;7.00;3.00;;;;;16.12;68.25;101039.59;5053476;28;46028;-78
2022/06/09 07:20:48;;;;;;;;;4.00;3.75;;;;;16.14;68.25;101030.53;5053486;28;46601;-79
2022/06/09 07:23:13;;;;;;;;;5.00;4.50;;;;;16.13;67.89;101023.59;5053467;28;45702;-79
2022/06/09 07:25:39;;;;;;;;;6.00;5.25;;;;;16.12;67.89;101035.13;5053896;28;45610;-79
2022/06/09 07:28:05;;;;;;;;;5.00;3.00;;;;;16.25;67.31;101040.16;5053380;28;46629;-79
2022/06/09 07:30:31;;;;;;;;;7.00;4.25;;;;;16.27;67.37;101040.88;5053250;28;46010;-79
2022/06/09 07:32:57;;;;;;;;;5.25;3.00;;;;;16.26;67.04;101041.84;5053380;28;45627;-79
2022/06/09 07:35:27;;;;;;;;;4.00;4.00;;;;;16.31;66.65;101037.81;5053606;28;45757;-77
2022/06/09 07:41:14;;;;;;;;;5.00;4.00;;;;;16.41;66.62;101055.53;5052815;28;46258;-79
2022/06/09 07:43:40;;;;;;;;;5.75;4.50;;;;;16.42;67.12;101052.75;5053311;28;45563;-78
2022/06/09 07:46:05;;;;;;;;;4.75;4.00;;;;;16.42;66.63;101060.66;5053342;28;45558;-78
2022/06/09 07:48:31;;;;;;;;;5.75;4.25;;;;;16.50;66.52;101060.00;5053218;28;46748;-79
2022/06/09 07:50:56;;;;;;;;;4.50;4.50;;;;;16.46;66.51;101042.75;5052994;28;45613;-79
2022/06/09 07:56:44;;;;;;;;;5.75;4.75;;;;;16.54;65.52;101062.25;5053217;28;45555;-78
2022/06/09 07:59:09;;;;;;;;;5.00;4.00;;;;;16.60;65.58;101060.91;5052839;28;45606;-78
2022/06/09 08:01:35;;;;;;;;;4.00;4.00;;;;;16.63;65.69;101065.91;5053034;28;45609;-77
2022/06/09 08:04:02;;;;;;;;;6.00;4.00;;;;;16.66;65.05;101058.53;5052831;28;45787;-79
2022/06/09 08:06:28;;;;;;;;;5.25;4.00;;;;;16.70;65.07;101061.75;5052889;28;45700;-79
2022/06/09 08:08:56;;;;;;;;;4.75;3.00;;;;;16.76;64.87;101064.69;5034215;28;47778;-78
2022/06/09 08:11:23;;;;;;;;;3.75;3.50;;;;;16.84;64.77;101073.75;5052675;28;46609;-79
2022/06/09 08:13:49;;;;;;;;;5.75;3.25;;;;;16.84;64.52;101079.88;5055017;28;45700;-79
2022/06/09 08:16:15;;;;;;;;;4.50;4.50;;;;;16.87;64.03;101082.25;5056303;28;45742;-79
2022/06/09 08:18:41;;;;;;;;;4.00;3.00;;;;;16.90;63.64;101073.19;5056214;28;45646;-77
2022/06/09 08:21:06;;;;;;;;;5.00;4.00;;;;;16.96;63.70;101080.56;5038050;28;46533;-78
2022/06/09 08:26:53;;;;;;;;;6.25;4.75;;;;;16.99;63.60;101096.19;5056320;28;45621;-78
2022/06/09 08:29:18;;;;;;;;;5.00;3.00;;;;;17.04;63.69;101092.16;5056196;28;46679;-79
2022/06/09 08:31:44;;;;;;;;;4.25;3.75;;;;;17.03;63.10;101110.81;5056230;28;45856;-79
2022/06/09 08:34:11;;;;;;;;;5.00;4.00;;;;;16.96;62.87;101088.50;5056279;28;45616;-78
2022/06/09 08:36:37;;;;;;;;;7.50;5.00;;;;;16.98;63.24;101110.41;5056049;28;45651;-77
2022/06/09 08:39:03;;;;;;;;;6.25;4.00;;;;;17.01;62.51;101110.94;5055723;28;46569;-78
2022/06/09 08:41:42;;;;;;;;;3.00;2.75;;;;;17.01;61.91;101105.66;5055829;28;46545;-77
2022/06/09 08:44:23;;;;;;;;;4.50;3.00;;;;;17.04;62.30;101096.59;5055802;28;45700;-80
2022/06/09 08:47:03;;;;;;;;;4.00;3.00;;;;;17.06;62.19;101099.94;5055499;28;45734;-79
2022/06/09 08:49:47;;;;;;;;;3.50;3.50;;;;;17.12;61.98;101099.38;5055801;28;45659;-77
2022/06/09 08:52:28;;;;;;;;;5.25;3.00;;;;;17.18;61.58;101091.72;5055968;28;46390;-78
2022/06/09 08:54:57;;;;;;;;;5.50;3.00;;;;;17.25;61.77;101083.22;5055880;28;45598;-80
2022/06/09 08:57:32;;;;;;;;;4.25;3.00;;;;;17.30;61.26;101079.19;5055541;28;45805;-79
2022/06/09 08:59:58;;;;;;;;;4.00;3.00;;;;;17.38;60.78;101081.94;5055471;28;46661;-78
2022/06/09 09:02:40;;;;;;;;;5.25;3.00;;;;;17.45;61.15;101074.28;5055494;28;46545;-79
2022/06/09 09:05:17;;;;;;;;;3.00;3.00;;;;;17.51;60.37;101081.66;5055702;28;45731;-78
2022/06/09 09:07:47;;;;;;;;;3.75;2.50;;;;;17.55;60.11;101067.97;5055739;28;45817;-76
2022/06/09 09:10:26;;;;;;;;;3.00;3.00;;;;;17.63;60.33;101075.25;5037114;28;47441;-77
2022/06/09 09:12:54;;;;;;;;;3.00;2.25;;;;;17.72;59.62;101094.75;5055651;28;46224;-78
2022/06/09 09:15:41;;;;;;;;;3.50;2.00;;;;;17.80;59.79;101084.28;5055531;28;45781;-77
2022/06/09 09:18:24;;;;;;;;;3.00;3.00;;;;;17.87;59.32;101077.41;5055489;28;45514;-78
2022/06/09 09:21:15;;;;;;;;;3.00;3.00;;;;;17.93;59.61;101077.66;5055270;28;46524;-78
2022/06/09 09:23:47;;;;;;;;;4.00;3.00;;;;;17.99;59.23;101071.78;5036505;28;48188;-79
2022/06/09 09:26:44;;;;;;;;;3.00;2.00;;;;;18.06;58.69;101085.31;5055159;28;45550;-78
2022/06/09 09:29:22;;;;;;;;;2.50;2.00;;;;;18.11;58.71;101085.72;5051904;28;45661;-78
2022/06/09 09:31:53;;;;;;;;;4.00;3.00;;;;;18.14;58.64;101089.91;5054967;28;46871;-79
2022/06/09 09:34:28;;;;;;;;;3.25;2.50;;;;;18.17;58.31;101092.25;5055185;28;45731;-79
2022/06/09 09:40:26;;;;;;;;;3.50;3.25;;;;;18.23;57.46;101099.63;5054921;28;45596;-77
2022/06/09 09:42:56;;;;;;;;;2.75;2.00;;;;;18.24;57.36;101096.00;5036298;28;47417;-78
2022/06/09 09:45:32;;;;;;;;;3.75;2.75;;;;;18.27;56.71;101090.38;5054911;28;46070;-78
2022/06/09 09:48:00;;;;;;;;;2.25;2.25;;;;;18.35;57.09;101098.47;5054939;28;45741;-79
2022/06/09 09:50:38;;;;;;;;;4.00;2.25;;;;;18.43;56.40;101087.94;5054895;28;45786;-78
2022/06/09 09:56:34;;;;;;;;;4.00;2.25;;;;;18.56;58.53;101111.50;5054289;28;46164;-79
2022/06/09 09:59:02;;;;;;;;;2.75;2.00;;;;;18.60;58.44;101110.22;5054619;28;45988;-79
2022/06/09 10:08:35;;;;;;;;;2.00;2.00;;;;;18.61;56.31;101091.50;5054711;28;45577;-77
2022/06/09 10:10:22;;;;;;;;;3.00;3.00;;;;;18.72;56.55;101115.19;5054397;28;45634;-77
2022/06/09 10:12:48;;;;;;;;;2.75;2.00;;;;;18.76;55.67;101113.91;5055043;28;45868;-78
2022/06/09 10:15:19;;;;;;;;;3.75;2.00;;;;;18.76;56.23;101134.28;5054545;28;46472;-80
2022/06/09 10:17:53;;;;;;;;;2.00;2.00;;;;;18.76;55.48;101115.72;5054044;28;45963;-78
2022/06/09 10:20:30;;;;;;;;;4.00;2.25;;;;;18.78;54.79;101119.06;5054153;28;45717;-78
2022/06/09 10:23:09;;;;;;;;;3.25;2.00;;;;;18.82;55.04;101117.78;5036040;28;45536;-77
2022/06/09 10:25:54;;;;;;;;;4.00;3.25;;;;;18.84;56.22;101127.25;5054155;28;46653;-79
2022/06/09 10:28:46;;;;;;;;;2.00;2.00;;;;;18.86;54.81;101117.31;5035628;28;46202;-79
2022/06/09 10:31:26;;;;;;;;;2.00;1.00;;;;;18.93;55.18;101128.19;5054110;28;45679;-78
2022/06/09 10:34:25;;;;;;;;;3.75;1.00;;;;;18.99;54.14;101135.56;5054523;28;45749;-78
2022/06/09 10:40:31;;;;;;;;;2.00;2.00;;;;;19.06;54.61;101130.44;5053822;28;45984;-79
2022/06/09 10:43:18;;;;;;;;;3.75;2.75;;;;;19.05;54.36;101150.06;5054195;28;45563;-79
2022/06/09 10:45:56;;;;;;;;;4.00;2.25;;;;;19.06;54.72;101122.47;5054340;28;45687;-79
2022/06/09 10:57:40;;;;;;;;;3.25;2.25;;;;;19.24;53.93;101129.47;5053843;28;45702;-78
2022/06/09 11:00:08;;;;;;;;;3.00;3.00;;;;;19.28;53.50;101133.50;5053794;28;45681;-78
2022/06/09 11:02:35;;;;;;;;;2.25;2.00;;;;;19.34;53.93;101145.34;5053868;28;46188;-79
2022/06/09 11:05:01;;;;;;;;;4.00;3.00;;;;;19.36;52.80;101132.75;5053780;28;45891;-79
2022/06/09 11:07:58;;;;;;;;;3.00;2.00;;;;;19.42;52.68;101147.25;5053607;28;45693;-78
2022/06/09 11:11:04;;;;;;;;;3.00;2.00;;;;;19.45;53.15;101157.59;5053459;28;45706;-79
2022/06/09 11:13:42;;;;;;;;;2.00;1.25;;;;;19.47;52.62;101148.50;5009004;28;45945;-78
2022/06/09 11:16:21;;;;;;;;;3.00;1.00;;;;;19.51;52.11;101154.31;5010877;28;45756;-79
2022/06/09 11:19:04;;;;;;;;;2.00;2.00;;;;;19.53;53.35;101145.22;5011210;28;45782;-78
2022/06/09 11:21:44;;;;;;;;;1.00;1.00;;;;;19.63;50.57;101150.44;5011345;28;45557;-78
2022/06/09 11:24:15;;;;;;;;;2.00;1.00;;;;;19.66;51.18;101142.16;5011012;28;47376;-78
2022/06/09 11:26:41;;;;;;;;;1.00;1.00;;;;;19.70;51.92;101154.16;5011373;28;45715;-78
2022/06/09 11:29:37;;;;;;;;;1.00;1.00;;;;;19.70;52.38;101160.28;5011156;28;45549;-78
2022/06/09 11:32:40;;;;;;;;;3.00;2.25;;;;;19.76;51.31;101156.19;5011058;28;45603;-79
2022/06/09 11:35:34;;;;;;;;;3.00;2.00;;;;;19.81;50.67;101155.75;5010682;28;45817;-79
2022/06/09 11:41:43;;;;;;;;;2.00;2.00;;;;;19.93;50.24;101152.66;5010960;28;45783;-79
2022/06/09 11:44:23;;;;;;;;;1.75;1.75;;;;;19.98;50.24;101133.56;5010940;28;46966;-80
2022/06/09 11:46:52;;;;;;;;;2.00;2.00;;;;;20.09;50.52;101144.78;5011583;28;46068;-78
2022/06/09 11:49:36;;;;;;;;;3.00;2.00;;;;;20.16;49.09;101163.63;5035042;28;45764;-77
2022/06/09 11:52:06;;;;;;;;;2.00;2.00;;;;;20.22;49.07;101167.47;5056787;28;45716;-79
2022/06/09 11:57:54;;;;;;;;;2.25;1.50;;;;;20.31;48.46;101156.72;5056303;28;45591;-78
2022/06/09 12:00:21;;;;;;;;;0.75;0.50;;;;;20.37;48.19;101147.28;5056517;28;45615;-78
2022/06/09 12:03:15;;;;;;;;;1.50;1.50;;;;;20.43;47.76;101144.81;5056811;28;45621;-78
2022/06/09 12:06:06;;;;;;;;;0.50;0.50;;;;;20.50;47.42;101148.53;5056634;28;45885;-78
2022/06/09 12:08:46;;;;;;;;;3.00;2.00;;;;;20.55;47.54;101149.88;5037970;28;48585;-77
2022/06/09 12:11:14;;;;;;;;;1.00;1.00;;;;;20.57;48.24;101154.03;5038220;28;45704;-77
2022/06/09 12:13:55;;;;;;;;;2.50;2.50;;;;;20.60;47.88;101155.53;5056634;28;45802;-80
2022/06/09 12:16:23;;;;;;;;;2.00;1.00;;;;;20.65;47.07;101178.03;5055909;28;45806;-77
2022/06/09 12:18:58;;;;;;;;;2.00;1.00;;;;;20.70;47.98;101162.41;5056253;28;46395;-77
2022/06/09 12:21:34;;;;;;;;;2.00;1.75;;;;;20.72;47.60;101163.09;5056197;28;46150;-77
2022/06/09 12:24:25;;;;;;;;;1.75;0.75;;;;;20.74;47.14;101171.75;5057044;28;45894;-78
2022/06/09 12:26:56;;;;;;;;;3.25;2.00;;;;;20.77;47.05;101171.44;5052821;28;46949;-78
2022/06/09 12:29:44;;;;;;;;;1.25;1.00;;;;;20.82;45.87;101173.59;5056125;28;46265;-79
2022/06/09 12:32:09;;;;;;;;;2.00;1.50;;;;;20.85;45.89;101168.78;5038010;28;45712;-77
2022/06/09 12:34:42;;;;;;;;;2.00;1.75;;;;;20.88;46.48;101167.63;5056268;28;45492;-79
2022/06/09 12:37:17;;;;;;;;;5.75;1.75;;;;;20.92;46.33;101176.97;5056146;28;45715;-79
2022/06/09 12:39:47;;;;;;;;;1.50;0.75;;;;;20.91;45.45;101167.28;5056020;28;46428;-78
2022/06/09 12:42:41;;;;;;;;;1.75;1.00;;;;;20.90;44.96;101185.09;5037736;28;45643;-80
2022/06/09 12:45:18;;;;;;;;;0.25;0.25;;;;;20.88;44.11;101172.97;5037653;28;45694;-79
2022/06/09 12:47:55;;;;;;;;;0.00;0.00;;;;;20.92;44.27;101175.13;5056018;28;47014;-78
2022/06/09 12:50:32;;;;;;;;;1.50;1.50;;;;;20.90;44.68;101157.63;5055696;28;46522;-80
2022/06/09 12:52:58;;;;;;;;;1.00;0.25;;;;;20.89;44.53;101167.44;5055962;28;45559;-78
2022/06/09 12:55:30;;;;;;;;;0.50;0.50;;;;;20.94;44.13;101183.78;5056160;28;45791;-78
2022/06/09 12:58:02;;;;;;;;;2.00;2.00;;;;;20.94;43.99;101181.13;5055828;28;46559;-78
2022/06/09 13:00:34;;;;;;;;;1.50;1.50;;;;;20.88;44.81;101176.47;5055235;28;45907;-79
2022/06/09 13:02:59;;;;;;;;;2.00;1.50;;;;;20.95;44.51;101184.63;5055646;28;45500;-77